Time;durP1;ratioP1;P1;durP2;ratioP2;P2;SDS_P1;SDS_P2;PMS_P1;PMS_P2;Temp;Humidity;BMP_temperature;BMP_pressure;BME280_temperature;BME280_humidity;BME280_pressure;Samples;Min_cycle;Max_cycle;Signal;HPM_P1;HPM_P2
2023/08/14 00:00:04;;;;;;;;;8.00;8.00;;;;;25.59;44.34;100599.56;5059438;28;45445;-71
2023/08/14 00:02:29;;;;;;;;;7.00;7.00;;;;;25.56;44.40;100581.84;5059472;28;45422;-72
2023/08/14 00:04:54;;;;;;;;;7.25;7.25;;;;;25.54;44.61;100585.72;5062788;28;65967;-70
2023/08/14 00:07:19;;;;;;;;;7.25;7.25;;;;;25.56;44.45;100589.09;5060313;28;45393;-73
2023/08/14 00:09:45;;;;;;;;;8.50;8.50;;;;;25.54;44.99;100578.47;5040685;28;45295;-71
2023/08/14 00:12:10;;;;;;;;;9.00;7.50;;;;;25.33;44.85;100538.44;5058928;28;45604;-73
2023/08/14 00:14:35;;;;;;;;;8.25;8.25;;;;;25.45;44.73;100557.84;5058320;28;45959;-72
2023/08/14 00:17:02;;;;;;;;;8.00;8.00;;;;;25.45;44.86;100574.00;5058427;28;45330;-72
2023/08/14 00:19:27;;;;;;;;;8.50;8.50;;;;;25.43;44.67;100579.53;5057752;28;52637;-72
2023/08/14 00:21:52;;;;;;;;;7.50;7.50;;;;;25.38;45.30;100573.78;5057881;28;52770;-70
2023/08/14 00:24:18;;;;;;;;;8.50;8.50;;;;;25.33;45.14;100557.28;5058204;28;55165;-69
2023/08/14 00:26:43;;;;;;;;;6.00;6.00;;;;;25.34;45.33;100546.38;5057895;28;54816;-67
2023/08/14 00:29:08;;;;;;;;;7.75;7.75;;;;;25.30;45.61;100553.06;5058300;28;55680;-70
2023/08/14 00:31:34;;;;;;;;;8.25;7.75;;;;;25.29;45.37;100548.69;5058512;28;45299;-70
2023/08/14 00:33:59;;;;;;;;;8.25;8.25;;;;;25.24;45.33;100549.16;5057869;28;45826;-71
2023/08/14 00:36:24;;;;;;;;;7.25;7.25;;;;;25.29;45.39;100553.22;5056927;28;45259;-71
2023/08/14 00:38:50;;;;;;;;;7.00;7.00;;;;;25.23;45.13;100550.16;5058122;28;45460;-69
2023/08/14 00:41:15;;;;;;;;;7.50;7.25;;;;;25.24;45.59;100562.59;5058312;28;45287;-71
2023/08/14 00:43:41;;;;;;;;;7.00;7.00;;;;;25.24;45.56;100546.47;5058386;28;46350;-70
2023/08/14 00:46:06;;;;;;;;;6.00;6.00;;;;;25.24;45.37;100543.75;5058066;28;45409;-69
2023/08/14 00:48:32;;;;;;;;;5.75;5.75;;;;;25.21;45.21;100543.25;5058929;28;45349;-70
2023/08/14 00:50:58;;;;;;;;;5.75;5.75;;;;;25.20;45.66;100528.94;5062143;28;45564;-70
2023/08/14 00:53:28;;;;;;;;;8.00;7.50;;;;;25.22;45.31;100535.00;5062224;28;45465;-70
2023/08/14 00:55:55;;;;;;;;;6.00;6.00;;;;;25.17;45.82;100533.81;5061917;28;45224;-70
2023/08/14 00:58:22;;;;;;;;;6.50;6.50;;;;;25.20;45.75;100538.88;5061303;28;45440;-71
2023/08/14 01:00:47;;;;;;;;;5.75;5.75;;;;;25.15;45.73;100520.50;5058605;28;45586;-71
2023/08/14 01:03:13;;;;;;;;;7.50;7.50;;;;;25.13;45.93;100524.38;5039598;28;47334;-70
2023/08/14 01:05:39;;;;;;;;;6.25;6.25;;;;;25.12;45.75;100515.44;5057766;28;45393;-71
2023/08/14 01:08:04;;;;;;;;;6.00;6.00;;;;;25.17;46.05;100529.25;5038701;28;45331;-69
2023/08/14 01:10:59;;;;;;;;;6.75;6.75;;;;;25.02;45.34;100509.31;5057782;28;45391;-70
2023/08/14 01:13:57;;;;;;;;;7.00;7.00;;;;;25.18;46.06;100541.72;5057452;28;45449;-69
2023/08/14 01:16:30;;;;;;;;;5.00;5.00;;;;;25.09;46.10;100499.59;5023542;28;45282;-70
2023/08/14 01:18:58;;;;;;;;;7.00;7.00;;;;;25.27;46.00;100529.16;5057652;28;45446;-68
2023/08/14 01:21:42;;;;;;;;;4.75;4.75;;;;;25.33;45.51;100533.91;5057705;28;45528;-69
2023/08/14 01:24:19;;;;;;;;;4.25;4.25;;;;;25.33;45.72;100523.13;5057303;28;46340;-70
2023/08/14 01:26:46;;;;;;;;;5.00;5.00;;;;;25.24;45.44;100510.63;5057529;28;45308;-69
2023/08/14 01:29:12;;;;;;;;;7.25;7.25;;;;;25.33;45.64;100522.28;5057465;28;45430;-72
2023/08/14 01:31:37;;;;;;;;;6.25;6.25;;;;;25.12;45.86;100480.44;5057520;28;45408;-69
2023/08/14 01:34:03;;;;;;;;;5.75;5.75;;;;;25.32;45.92;100526.84;5057120;28;45356;-71
2023/08/14 01:37:10;;;;;;;;;6.00;6.00;;;;;25.40;45.39;100530.56;5057433;28;45401;-71
2023/08/14 01:39:43;;;;;;;;;9.25;8.50;;;;;25.39;45.65;100527.03;5045085;28;45636;-71
2023/08/14 01:42:34;;;;;;;;;8.25;8.25;;;;;25.42;46.01;100523.19;5060320;28;45453;-71
2023/08/14 01:45:09;;;;;;;;;6.00;6.00;;;;;25.35;45.63;100502.28;5038666;28;48444;-70
2023/08/14 01:47:38;;;;;;;;;4.75;4.75;;;;;25.48;45.57;100522.56;5057111;28;45231;-70
2023/08/14 01:50:05;;;;;;;;;9.00;9.00;;;;;25.48;45.89;100531.50;5057017;28;45335;-70
2023/08/14 01:52:31;;;;;;;;;9.00;9.00;;;;;25.49;45.80;100527.81;5057436;28;45361;-71
2023/08/14 01:55:00;;;;;;;;;8.00;8.00;;;;;25.49;45.55;100533.19;5057237;28;46197;-70
2023/08/14 01:57:26;;;;;;;;;6.75;6.75;;;;;25.38;45.61;100525.31;5057027;28;45254;-72
2023/08/14 01:59:51;;;;;;;;;9.50;9.50;;;;;25.42;45.69;100524.00;5057042;28;45371;-70
2023/08/14 02:02:16;;;;;;;;;6.75;6.75;;;;;25.43;45.96;100523.00;5058118;28;45494;-71
2023/08/14 02:04:42;;;;;;;;;6.00;6.00;;;;;25.49;45.83;100518.88;5057391;28;45993;-71
2023/08/14 02:07:09;;;;;;;;;5.25;5.25;;;;;25.44;45.87;100513.91;5057078;28;45418;-74
2023/08/14 02:09:35;;;;;;;;;6.50;6.50;;;;;25.40;45.63;100504.47;5057078;28;45407;-71
2023/08/14 02:12:00;;;;;;;;;5.00;5.00;;;;;25.39;46.21;100508.16;5056892;28;45460;-72
2023/08/14 02:14:26;;;;;;;;;7.00;7.00;;;;;25.40;46.14;100500.97;5055425;28;47057;-72
2023/08/14 02:16:51;;;;;;;;;7.00;7.00;;;;;25.45;45.79;100504.00;5056573;28;45458;-73
2023/08/14 02:19:17;;;;;;;;;5.00;5.00;;;;;25.42;46.13;100501.63;5057248;28;45345;-74
2023/08/14 02:21:42;;;;;;;;;5.00;4.50;;;;;25.44;45.65;100495.06;5056931;28;45561;-73
2023/08/14 02:24:08;;;;;;;;;4.50;4.50;;;;;25.21;45.91;100471.41;5056614;28;46295;-72
2023/08/14 02:26:33;;;;;;;;;4.00;4.00;;;;;25.33;45.86;100516.88;5056574;28;45986;-71
2023/08/14 02:28:58;;;;;;;;;5.75;5.75;;;;;25.24;46.03;100497.19;5056892;28;45354;-70
2023/08/14 02:31:24;;;;;;;;;5.00;5.00;;;;;25.24;45.64;100494.50;5055492;28;45414;-70
2023/08/14 02:33:49;;;;;;;;;5.00;5.00;;;;;25.31;45.81;100509.00;5056414;28;46165;-70
2023/08/14 02:36:15;;;;;;;;;4.75;4.75;;;;;25.26;45.71;100489.78;5056347;28;45327;-69
2023/08/14 02:38:40;;;;;;;;;3.75;3.75;;;;;25.22;46.11;100473.09;5056559;28;45732;-69
2023/08/14 02:41:06;;;;;;;;;4.75;4.25;;;;;25.21;45.69;100481.34;5056286;28;45527;-71
2023/08/14 02:43:32;;;;;;;;;4.75;4.75;;;;;25.10;45.83;100471.69;5056266;28;47400;-69
2023/08/14 02:45:57;;;;;;;;;4.50;4.50;;;;;25.14;45.65;100472.22;5056327;28;45468;-69
2023/08/14 02:48:23;;;;;;;;;6.00;6.00;;;;;25.13;46.27;100478.63;5058156;28;45375;-72
2023/08/14 02:50:48;;;;;;;;;5.00;5.00;;;;;25.05;46.28;100463.25;5056890;28;45494;-70
2023/08/14 02:53:14;;;;;;;;;4.00;4.00;;;;;25.02;45.72;100466.28;5055982;28;45872;-70
2023/08/14 02:55:39;;;;;;;;;3.75;3.75;;;;;24.76;45.96;100418.72;5055842;28;45443;-69
2023/08/14 02:58:05;;;;;;;;;4.00;4.00;;;;;24.94;46.50;100464.38;5056246;28;45629;-69
2023/08/14 03:00:30;;;;;;;;;4.50;4.50;;;;;24.84;46.38;100459.09;5056251;28;45599;-70
2023/08/14 03:02:55;;;;;;;;;4.75;4.75;;;;;24.86;46.30;100469.69;5055966;28;45344;-70
2023/08/14 03:05:21;;;;;;;;;4.00;4.00;;;;;24.82;46.36;100468.31;5056487;28;45307;-72
2023/08/14 03:07:46;;;;;;;;;4.25;4.25;;;;;24.80;46.70;100463.94;5056249;28;45362;-73
2023/08/14 03:10:12;;;;;;;;;5.00;5.00;;;;;24.76;46.18;100457.19;5056416;28;45447;-74
2023/08/14 03:12:37;;;;;;;;;4.75;4.75;;;;;24.73;46.67;100464.72;5056161;28;46189;-72
2023/08/14 03:15:04;;;;;;;;;5.00;5.00;;;;;24.72;46.59;100469.22;5059267;28;45858;-71
2023/08/14 03:17:30;;;;;;;;;4.50;4.50;;;;;24.68;46.35;100458.97;5057160;28;45332;-72
2023/08/14 03:19:55;;;;;;;;;5.50;5.50;;;;;24.70;46.75;100473.09;5056078;28;45355;-69
2023/08/14 03:22:20;;;;;;;;;6.00;6.00;;;;;24.70;46.84;100471.25;5055959;28;45946;-71
2023/08/14 03:24:46;;;;;;;;;5.25;5.25;;;;;24.67;47.28;100470.72;5055566;28;45304;-72
2023/08/14 03:27:11;;;;;;;;;8.00;7.00;;;;;24.63;46.75;100467.50;5055747;28;45313;-71
2023/08/14 03:29:37;;;;;;;;;7.25;7.25;;;;;24.56;46.91;100447.59;5056189;28;45512;-70
2023/08/14 03:32:02;;;;;;;;;14.00;13.00;;;;;24.56;47.07;100442.22;5054988;28;46010;-72
2023/08/14 03:34:27;;;;;;;;;13.50;13.50;;;;;24.54;46.70;100434.34;5056281;28;45362;-70
2023/08/14 03:36:53;;;;;;;;;12.50;12.50;;;;;24.52;47.13;100449.78;5057091;28;45840;-72
2023/08/14 03:39:18;;;;;;;;;13.00;13.00;;;;;24.62;46.77;100463.97;5055467;28;48665;-70
2023/08/14 03:41:44;;;;;;;;;11.00;11.00;;;;;24.59;46.87;100466.13;5055136;28;48055;-71
2023/08/14 03:44:09;;;;;;;;;7.25;7.25;;;;;24.54;47.52;100466.59;5055569;28;45395;-71
2023/08/14 03:46:35;;;;;;;;;9.00;9.00;;;;;24.51;47.58;100465.06;5055564;28;45265;-70
2023/08/14 03:49:01;;;;;;;;;8.00;7.75;;;;;24.50;47.50;100459.84;5056644;28;45535;-72
2023/08/14 03:51:27;;;;;;;;;6.25;6.25;;;;;24.48;47.61;100454.63;5055436;28;46023;-69
2023/08/14 03:53:52;;;;;;;;;5.50;5.50;;;;;24.44;47.71;100452.41;5055646;28;45207;-71
2023/08/14 03:56:17;;;;;;;;;7.25;6.00;;;;;24.43;47.12;100450.72;5054914;28;52913;-72
2023/08/14 03:58:42;;;;;;;;;5.00;5.00;;;;;24.24;47.53;100412.25;5055704;28;45368;-67
2023/08/14 04:01:08;;;;;;;;;5.75;5.75;;;;;24.34;47.28;100437.19;5054762;28;52202;-73
2023/08/14 04:03:33;;;;;;;;;5.00;5.00;;;;;24.25;47.32;100432.75;5055390;28;45252;-73
2023/08/14 04:06:00;;;;;;;;;5.00;5.00;;;;;24.28;47.30;100440.50;5055362;28;45537;-72
2023/08/14 04:08:26;;;;;;;;;4.25;4.25;;;;;24.21;47.55;100442.13;5037557;28;45569;-70
2023/08/14 04:10:57;;;;;;;;;4.75;4.75;;;;;24.16;47.48;100444.41;5054648;28;60135;-73
2023/08/14 04:13:23;;;;;;;;;4.00;4.00;;;;;24.04;48.20;100441.97;5055545;28;45417;-71
2023/08/14 04:15:49;;;;;;;;;2.00;2.00;;;;;24.08;48.34;100447.88;5055344;28;45286;-73
2023/08/14 04:18:14;;;;;;;;;4.00;4.00;;;;;24.03;47.96;100448.34;5055502;28;45245;-72
2023/08/14 04:20:39;;;;;;;;;4.00;4.00;;;;;24.05;48.27;100454.41;5036647;28;47057;-71
2023/08/14 04:23:06;;;;;;;;;6.50;6.50;;;;;24.03;47.85;100451.03;5054908;28;45372;-74
2023/08/14 04:25:31;;;;;;;;;5.00;5.00;;;;;24.01;47.85;100444.97;5054995;28;45273;-73
2023/08/14 04:27:57;;;;;;;;;5.00;5.00;;;;;24.08;48.31;100445.22;5055624;28;45722;-73
2023/08/14 04:30:22;;;;;;;;;5.50;5.50;;;;;24.01;47.80;100438.75;5055243;28;45381;-70
2023/08/14 04:32:47;;;;;;;;;4.25;4.25;;;;;24.03;48.02;100437.59;5054022;28;63646;-73
2023/08/14 04:35:13;;;;;;;;;3.00;3.00;;;;;24.02;47.70;100443.97;5054971;28;45418;-72
2023/08/14 04:37:38;;;;;;;;;6.00;6.00;;;;;23.99;47.85;100454.16;5055134;28;45529;-71
2023/08/14 04:40:04;;;;;;;;;5.25;5.25;;;;;23.98;48.05;100453.28;5054940;28;46110;-71
2023/08/14 04:42:31;;;;;;;;;4.00;4.00;;;;;23.97;48.27;100448.91;5057080;28;45468;-70
2023/08/14 04:44:57;;;;;;;;;5.50;5.50;;;;;23.98;48.49;100445.22;5059667;28;45285;-70
2023/08/14 04:47:22;;;;;;;;;5.75;5.75;;;;;24.01;47.93;100442.28;5058948;28;45173;-72
2023/08/14 04:49:47;;;;;;;;;4.50;4.50;;;;;24.02;47.93;100441.28;5061357;28;45354;-72
2023/08/14 04:52:13;;;;;;;;;3.75;3.75;;;;;24.00;47.97;100440.59;5059062;28;58316;-72
2023/08/14 04:54:38;;;;;;;;;5.25;5.25;;;;;24.03;48.54;100445.66;5057886;28;49830;-70
2023/08/14 04:57:04;;;;;;;;;3.00;3.00;;;;;24.01;48.16;100439.59;5058457;28;45201;-70
2023/08/14 04:59:30;;;;;;;;;4.75;4.75;;;;;23.99;48.79;100444.25;5058190;28;46526;-71
2023/08/14 05:01:55;;;;;;;;;3.50;3.50;;;;;24.01;48.44;100430.69;5058800;28;45498;-70
2023/08/14 05:04:23;;;;;;;;;6.00;5.00;;;;;24.05;48.39;100446.34;5059124;28;47750;-69
2023/08/14 05:06:48;;;;;;;;;5.00;5.00;;;;;24.04;48.10;100444.66;5058336;28;45479;-70
2023/08/14 05:09:14;;;;;;;;;6.00;6.00;;;;;23.98;48.51;100449.78;5056099;28;55592;-70
2023/08/14 05:11:39;;;;;;;;;5.00;5.00;;;;;24.03;48.67;100445.66;5057885;28;45538;-69
2023/08/14 05:14:05;;;;;;;;;5.50;5.50;;;;;23.99;48.52;100433.50;5057763;28;45379;-70
2023/08/14 05:16:30;;;;;;;;;7.00;7.00;;;;;24.02;48.30;100432.38;5039393;28;47568;-70
2023/08/14 05:18:55;;;;;;;;;5.75;5.75;;;;;24.09;48.81;100446.91;5057982;28;45319;-70
2023/08/14 05:21:21;;;;;;;;;6.25;6.25;;;;;24.09;48.40;100452.28;5057694;28;46622;-71
2023/08/14 05:23:46;;;;;;;;;3.25;3.25;;;;;24.10;48.07;100455.78;5057741;28;45348;-70
2023/08/14 05:26:11;;;;;;;;;12.50;12.50;;;;;24.10;48.36;100456.66;5039559;28;45559;-69
2023/08/14 05:28:37;;;;;;;;;5.50;5.50;;;;;24.11;48.73;100455.66;5056562;28;61788;-68
2023/08/14 05:31:02;;;;;;;;;5.00;5.00;;;;;24.14;48.34;100454.47;5057337;28;45322;-70
2023/08/14 05:33:27;;;;;;;;;4.75;4.75;;;;;24.06;48.31;100441.81;5039265;28;50849;-70
2023/08/14 05:35:53;;;;;;;;;6.00;6.00;;;;;24.06;48.14;100439.16;5057418;28;45602;-70
2023/08/14 05:38:18;;;;;;;;;6.00;6.00;;;;;24.11;48.10;100444.03;5057856;28;46028;-70
2023/08/14 05:40:43;;;;;;;;;5.00;5.00;;;;;24.15;47.96;100448.97;5059799;28;59312;-71
2023/08/14 05:43:11;;;;;;;;;5.25;5.25;;;;;24.14;48.61;100436.53;5064207;28;58957;-69
2023/08/14 05:45:44;;;;;;;;;5.00;5.00;;;;;24.13;48.65;100442.03;5061453;28;45229;-70
2023/08/14 05:48:11;;;;;;;;;11.00;11.00;;;;;24.13;47.96;100434.84;5057202;28;47099;-70
2023/08/14 05:50:36;;;;;;;;;27.00;27.00;;;;;24.00;48.79;100415.56;5055617;28;45292;-69
2023/08/14 05:53:04;;;;;;;;;8.00;7.50;;;;;24.12;48.07;100430.47;5056898;28;45392;-70
2023/08/14 05:55:33;;;;;;;;;5.00;5.00;;;;;24.14;48.53;100430.28;5057063;28;45268;-70
2023/08/14 05:57:59;;;;;;;;;5.00;5.00;;;;;24.09;48.20;100403.91;5056941;28;45299;-70
2023/08/14 06:00:25;;;;;;;;;8.25;7.50;;;;;24.13;48.51;100420.53;5056398;28;45316;-70
2023/08/14 06:02:51;;;;;;;;;4.75;4.75;;;;;24.15;48.63;100418.53;5056831;28;45356;-70
2023/08/14 06:05:17;;;;;;;;;5.00;5.00;;;;;24.15;48.47;100418.53;5056824;28;45340;-71
2023/08/14 06:07:42;;;;;;;;;6.00;6.00;;;;;24.17;48.42;100429.97;5056568;28;45390;-70
2023/08/14 06:10:08;;;;;;;;;5.00;5.00;;;;;24.17;48.65;100430.84;5056612;28;45376;-69
2023/08/14 06:12:34;;;;;;;;;4.25;4.25;;;;;24.22;48.18;100427.69;5057901;28;45374;-71
2023/08/14 06:14:59;;;;;;;;;4.50;4.50;;;;;24.26;47.88;100422.84;5057571;28;45343;-70
2023/08/14 06:17:25;;;;;;;;;4.25;4.00;;;;;24.16;47.90;100396.06;5056499;28;51778;-70
2023/08/14 06:19:51;;;;;;;;;4.75;4.75;;;;;24.39;48.39;100431.34;5056395;28;45426;-71
2023/08/14 06:22:17;;;;;;;;;4.25;4.25;;;;;24.35;47.47;100420.06;5056201;28;45373;-71
2023/08/14 06:24:43;;;;;;;;;9.25;9.00;;;;;24.39;47.96;100428.66;5057502;28;45518;-71
2023/08/14 06:27:08;;;;;;;;;4.25;4.25;;;;;24.55;48.04;100435.16;5056898;28;45301;-69
2023/08/14 06:29:33;;;;;;;;;6.00;6.00;;;;;24.61;47.91;100434.53;5056994;28;45443;-69
2023/08/14 06:31:59;;;;;;;;;6.00;6.00;;;;;24.62;48.04;100418.25;5056647;28;45792;-69
2023/08/14 06:34:25;;;;;;;;;10.00;8.00;;;;;24.78;47.72;100427.47;5056438;28;45396;-70
2023/08/14 06:36:50;;;;;;;;;7.75;7.75;;;;;24.87;47.74;100429.19;5055599;28;56328;-70
2023/08/14 06:39:16;;;;;;;;;9.25;9.25;;;;;24.96;47.64;100421.16;5056226;28;45333;-71
2023/08/14 06:41:41;;;;;;;;;7.50;7.50;;;;;25.05;47.08;100428.28;5037950;28;45226;-71
2023/08/14 06:44:11;;;;;;;;;5.25;5.25;;;;;25.15;47.02;100434.38;5056370;28;45492;-72
2023/08/14 06:46:36;;;;;;;;;5.00;5.00;;;;;25.21;46.32;100438.28;5055915;28;46326;-70
2023/08/14 06:49:02;;;;;;;;;4.00;4.00;;;;;25.21;46.43;100428.34;5056046;28;45268;-70
2023/08/14 06:51:27;;;;;;;;;5.50;5.50;;;;;25.28;46.48;100423.19;5055832;28;45279;-71
2023/08/14 06:53:53;;;;;;;;;6.00;6.00;;;;;25.40;46.50;100429.09;5055947;28;45270;-71
2023/08/14 06:56:18;;;;;;;;;3.00;3.00;;;;;25.45;46.41;100434.00;5054345;28;47110;-73
2023/08/14 06:58:43;;;;;;;;;3.50;3.50;;;;;25.51;45.97;100431.53;5037689;28;45535;-72
2023/08/14 07:01:09;;;;;;;;;5.00;5.00;;;;;25.52;46.13;100419.78;5056046;28;45269;-72
2023/08/14 07:03:35;;;;;;;;;3.75;3.75;;;;;25.71;45.87;100433.09;5038348;28;45524;-70
2023/08/14 07:06:00;;;;;;;;;4.75;4.75;;;;;25.79;45.91;100441.19;5054076;28;63783;-72
2023/08/14 07:08:28;;;;;;;;;4.50;4.50;;;;;25.93;45.57;100447.78;5056175;28;45443;-71
2023/08/14 07:10:53;;;;;;;;;6.25;6.25;;;;;26.03;45.63;100442.25;5055775;28;45442;-70
2023/08/14 07:13:19;;;;;;;;;5.00;4.00;;;;;26.12;45.30;100443.97;5055875;28;45430;-69
2023/08/14 07:15:47;;;;;;;;;8.00;8.00;;;;;26.22;45.10;100446.50;5055710;28;45392;-71
2023/08/14 07:18:14;;;;;;;;;6.25;6.00;;;;;26.34;45.01;100447.84;5055301;28;45296;-71
2023/08/14 07:20:39;;;;;;;;;5.50;4.00;;;;;26.44;45.28;100449.53;5055538;28;45316;-72
2023/08/14 07:23:05;;;;;;;;;5.00;5.00;;;;;26.58;44.77;100451.56;5057398;28;45539;-72
2023/08/14 07:25:31;;;;;;;;;4.50;4.50;;;;;26.67;45.04;100455.09;5056154;28;47347;-73
2023/08/14 07:27:57;;;;;;;;;4.75;4.75;;;;;26.73;44.82;100437.38;5055973;28;45191;-73
2023/08/14 07:30:23;;;;;;;;;6.00;6.00;;;;;26.83;44.32;100448.84;5055636;28;45351;-72
2023/08/14 07:32:48;;;;;;;;;4.00;4.00;;;;;26.94;44.04;100451.19;5055413;28;45553;-69
2023/08/14 07:35:14;;;;;;;;;6.25;6.00;;;;;27.01;44.22;100451.31;5055211;28;46101;-69
2023/08/14 07:37:39;;;;;;;;;3.25;3.25;;;;;26.77;44.50;100392.84;5055669;28;45348;-69
2023/08/14 07:40:06;;;;;;;;;3.75;3.75;;;;;27.17;43.77;100455.00;5055702;28;45461;-71
2023/08/14 07:42:32;;;;;;;;;4.75;4.75;;;;;27.23;43.58;100459.72;5055633;28;45384;-71
2023/08/14 07:44:57;;;;;;;;;3.25;3.25;;;;;27.31;43.09;100462.38;5054845;28;46137;-69
2023/08/14 07:47:23;;;;;;;;;5.50;5.50;;;;;27.40;43.05;100460.47;5055184;28;45296;-72
2023/08/14 07:49:48;;;;;;;;;5.25;5.25;;;;;27.42;43.57;100466.53;5055195;28;45457;-70
2023/08/14 07:52:14;;;;;;;;;3.00;3.00;;;;;27.32;43.22;100452.41;5055410;28;45563;-72
2023/08/14 07:54:39;;;;;;;;;6.25;6.25;;;;;27.39;42.79;100458.78;5054918;28;46199;-69
2023/08/14 07:57:04;;;;;;;;;3.75;3.75;;;;;27.40;43.18;100461.34;5055416;28;45371;-70
2023/08/14 07:59:30;;;;;;;;;6.00;6.00;;;;;27.42;42.93;100448.50;5055666;28;45233;-72
2023/08/14 08:01:55;;;;;;;;;3.00;3.00;;;;;27.58;42.35;100454.84;5055370;28;49235;-70
2023/08/14 08:04:20;;;;;;;;;4.50;4.50;;;;;27.63;42.59;100451.63;5054885;28;46047;-69
2023/08/14 08:06:45;;;;;;;;;4.50;4.50;;;;;27.79;42.05;100454.25;5054522;28;59882;-71
2023/08/14 08:09:12;;;;;;;;;4.25;4.00;;;;;27.83;42.49;100452.88;5054788;28;45470;-69
2023/08/14 08:11:37;;;;;;;;;4.50;4.25;;;;;27.85;42.67;100450.81;5055432;28;45448;-69
2023/08/14 08:14:05;;;;;;;;;3.00;3.00;;;;;27.87;42.33;100445.22;5054614;28;45383;-70
2023/08/14 08:16:37;;;;;;;;;4.00;4.00;;;;;27.93;42.14;100449.91;5054580;28;45251;-70
2023/08/14 08:19:04;;;;;;;;;5.00;5.00;;;;;28.07;41.67;100450.16;5058467;28;45486;-71
2023/08/14 08:21:29;;;;;;;;;8.00;8.00;;;;;28.30;41.99;100443.94;5058426;28;45571;-70
2023/08/14 08:23:55;;;;;;;;;2.75;2.75;;;;;28.45;41.68;100439.41;5058148;28;47111;-71
2023/08/14 08:26:20;;;;;;;;;4.25;4.25;;;;;28.64;41.56;100450.75;5058095;28;45309;-73
2023/08/14 08:28:47;;;;;;;;;4.25;4.25;;;;;28.78;41.42;100447.25;5058068;28;45229;-73
2023/08/14 08:31:12;;;;;;;;;3.50;3.50;;;;;28.90;40.42;100444.06;5058149;28;45598;-71
2023/08/14 08:33:38;;;;;;;;;4.50;4.50;;;;;28.90;40.53;100436.81;5057644;28;45916;-71
2023/08/14 08:36:04;;;;;;;;;5.50;5.50;;;;;29.05;40.18;100433.25;5056472;28;45358;-70
2023/08/14 08:38:29;;;;;;;;;22.75;22.00;;;;;29.25;39.97;100434.34;5056799;28;45194;-70
2023/08/14 08:40:54;;;;;;;;;5.00;5.00;;;;;29.52;40.50;100445.53;5057800;28;47568;-70
2023/08/14 08:43:22;;;;;;;;;6.00;5.25;;;;;29.76;40.14;100438.13;5057914;28;46208;-72
2023/08/14 08:45:50;;;;;;;;;4.75;4.75;;;;;30.06;39.12;100448.88;5057953;28;45410;-71
2023/08/14 08:48:20;;;;;;;;;4.00;4.00;;;;;30.26;38.66;100434.66;5056604;28;45367;-70
2023/08/14 08:50:47;;;;;;;;;2.75;2.75;;;;;30.29;38.32;100434.25;5058190;28;45239;-69
2023/08/14 08:53:13;;;;;;;;;4.75;4.75;;;;;30.31;38.25;100434.91;5057644;28;45362;-71
2023/08/14 08:55:39;;;;;;;;;13.00;13.00;;;;;30.31;38.52;100434.91;5058329;28;45249;-71
2023/08/14 08:58:06;;;;;;;;;5.00;5.00;;;;;30.30;38.31;100430.50;5058256;28;45475;-68
2023/08/14 09:00:32;;;;;;;;;2.75;2.75;;;;;30.23;38.06;100432.34;5057820;28;45497;-70
2023/08/14 09:02:57;;;;;;;;;10.00;10.00;;;;;30.19;38.28;100428.34;5056781;28;60397;-70
2023/08/14 09:05:24;;;;;;;;;4.00;4.00;;;;;30.24;38.51;100428.59;5057644;28;45189;-69
2023/08/14 09:07:49;;;;;;;;;3.00;3.00;;;;;30.30;38.72;100425.94;5057675;28;45293;-70
2023/08/14 09:10:15;;;;;;;;;3.50;3.50;;;;;30.36;38.30;100418.88;5057237;28;45573;-70
2023/08/14 09:12:40;;;;;;;;;3.00;3.00;;;;;30.35;38.41;100419.09;5057560;28;46269;-69
2023/08/14 09:15:08;;;;;;;;;5.50;5.25;;;;;30.40;38.60;100411.19;5057215;28;45270;-70
2023/08/14 09:17:34;;;;;;;;;5.00;4.25;;;;;30.43;38.51;100403.47;5057119;28;45355;-70
2023/08/14 09:19:59;;;;;;;;;4.50;4.50;;;;;30.59;38.50;100398.81;5057533;28;45608;-70
2023/08/14 09:22:27;;;;;;;;;5.25;5.25;;;;;30.63;38.30;100407.41;5056845;28;46088;-71
2023/08/14 09:24:54;;;;;;;;;7.75;7.75;;;;;30.59;38.96;100396.94;5056898;28;45290;-70
2023/08/14 09:27:20;;;;;;;;;6.25;6.25;;;;;30.56;38.96;100394.59;5056863;28;45332;-71
2023/08/14 09:29:46;;;;;;;;;4.25;4.25;;;;;30.65;38.76;100395.31;5056335;28;45429;-70
2023/08/14 09:32:11;;;;;;;;;6.75;6.75;;;;;30.76;39.07;100402.06;5057103;28;46189;-73
2023/08/14 09:34:37;;;;;;;;;4.75;4.75;;;;;30.71;38.85;100372.78;5056981;28;51169;-72
2023/08/14 09:37:04;;;;;;;;;4.00;4.00;;;;;30.96;38.72;100398.63;5057341;28;45554;-71
2023/08/14 09:39:30;;;;;;;;;2.75;2.75;;;;;30.95;38.50;100392.38;5056958;28;45458;-71
2023/08/14 09:41:55;;;;;;;;;3.25;3.25;;;;;30.99;38.72;100403.66;5056146;28;45312;-72
2023/08/14 09:44:23;;;;;;;;;5.75;5.75;;;;;30.99;38.67;100400.94;5056788;28;45434;-70
2023/08/14 09:46:54;;;;;;;;;5.50;5.50;;;;;31.03;39.30;100407.63;5056779;28;45298;-71
2023/08/14 09:49:20;;;;;;;;;4.50;4.50;;;;;30.97;39.13;100381.28;5056725;28;45446;-69
2023/08/14 09:51:56;;;;;;;;;6.00;5.25;;;;;31.36;38.65;100395.28;5056742;28;45473;-70
2023/08/14 09:54:30;;;;;;;;;2.75;2.75;;;;;31.54;38.55;100408.28;5056460;28;45340;-72
2023/08/14 09:56:59;;;;;;;;;4.50;4.50;;;;;31.75;38.36;100397.28;5056829;28;45290;-71
2023/08/14 09:59:24;;;;;;;;;4.75;4.75;;;;;31.98;38.29;100403.38;5056895;28;45250;-70
2023/08/14 10:01:50;;;;;;;;;5.75;5.75;;;;;32.24;38.06;100401.72;5056394;28;45298;-70
2023/08/14 10:04:17;;;;;;;;;3.50;3.50;;;;;32.43;37.55;100392.72;5057247;28;45260;-70
2023/08/14 10:06:43;;;;;;;;;3.00;3.00;;;;;32.59;37.34;100401.50;5058838;28;45429;-70
2023/08/14 10:09:09;;;;;;;;;4.00;4.00;;;;;32.74;37.15;100398.53;5058179;28;45540;-70
2023/08/14 10:11:35;;;;;;;;;4.50;4.50;;;;;32.93;36.64;100391.41;5056443;28;45663;-71
2023/08/14 10:14:05;;;;;;;;;5.25;5.25;;;;;33.05;36.41;100377.94;5038273;28;45414;-72
2023/08/14 10:16:35;;;;;;;;;6.75;6.75;;;;;33.18;36.35;100382.50;5056236;28;45321;-72
2023/08/14 10:19:04;;;;;;;;;6.50;6.50;;;;;33.39;36.56;100373.13;5056082;28;45355;-72
2023/08/14 10:21:34;;;;;;;;;2.25;2.25;;;;;33.52;36.42;100379.63;5056097;28;47071;-72
2023/08/14 10:24:02;;;;;;;;;6.25;6.25;;;;;33.55;36.29;100382.72;5056050;28;45427;-70
2023/08/14 10:26:28;;;;;;;;;10.25;9.50;;;;;33.44;36.23;100370.66;5038285;28;45327;-70
2023/08/14 10:28:56;;;;;;;;;11.00;11.00;;;;;33.42;36.25;100378.22;5055928;28;45442;-69
2023/08/14 10:31:21;;;;;;;;;8.25;8.25;;;;;33.40;36.88;100374.00;5056156;28;45739;-69
2023/08/14 10:33:48;;;;;;;;;9.00;8.25;;;;;33.38;36.73;100371.47;5056223;28;45397;-69
2023/08/14 10:36:19;;;;;;;;;3.25;3.25;;;;;33.30;36.38;100364.41;5056575;28;45386;-70
2023/08/14 10:38:48;;;;;;;;;5.25;5.25;;;;;33.25;36.67;100371.53;5056594;28;45284;-68
2023/08/14 10:41:17;;;;;;;;;6.00;6.00;;;;;33.27;36.76;100358.53;5056690;28;46074;-69
2023/08/14 10:43:43;;;;;;;;;4.00;4.00;;;;;33.33;36.38;100353.06;5056439;28;45319;-70
2023/08/14 10:46:15;;;;;;;;;5.00;5.00;;;;;33.35;36.47;100352.81;5038449;28;45226;-71
2023/08/14 10:48:42;;;;;;;;;4.75;4.75;;;;;33.33;37.08;100339.44;5056202;28;45390;-70
2023/08/14 10:51:09;;;;;;;;;6.00;6.00;;;;;33.45;36.16;100336.03;5055538;28;46107;-71
2023/08/14 10:53:35;;;;;;;;;5.25;5.25;;;;;33.53;36.29;100340.41;5021915;28;45399;-69
2023/08/14 10:56:01;;;;;;;;;3.75;3.75;;;;;33.57;35.83;100345.19;5056919;28;45457;-74
2023/08/14 10:58:32;;;;;;;;;4.00;4.00;;;;;33.62;36.45;100344.53;5057174;28;45493;-72
2023/08/14 11:01:11;;;;;;;;;5.75;5.75;;;;;33.58;36.15;100338.66;5057250;28;47205;-71
2023/08/14 11:04:08;;;;;;;;;3.25;3.25;;;;;33.62;36.31;100344.53;5056558;28;45292;-69
2023/08/14 11:07:01;;;;;;;;;3.75;3.75;;;;;33.72;35.62;100344.03;5022001;28;45341;-72
2023/08/14 11:09:30;;;;;;;;;7.75;7.75;;;;;33.77;35.95;100347.78;5057260;28;45178;-72
2023/08/14 11:11:57;;;;;;;;;6.00;5.75;;;;;33.89;35.58;100349.78;5057188;28;45494;-68
2023/08/14 11:14:22;;;;;;;;;4.00;4.00;;;;;33.93;35.27;100340.09;5056283;28;45343;-72
2023/08/14 11:16:49;;;;;;;;;4.75;4.75;;;;;33.99;34.88;100346.59;5056050;28;45331;-72
2023/08/14 11:19:18;;;;;;;;;3.50;3.50;;;;;34.16;34.42;100342.22;5055673;28;45427;-69
2023/08/14 11:21:46;;;;;;;;;4.00;4.00;;;;;34.44;34.42;100338.16;5055595;28;46048;-72